createdAt,value
2023-02-19T00:02:21.225Z,100.00
2023-02-19T00:05:45.174Z,100.00
2023-02-19T00:09:11.542Z,100.00
2023-02-19T00:12:35.581Z,100.00
2023-02-19T00:16:07.046Z,100.00
2023-02-19T00:19:31.226Z,100.00
2023-02-19T00:22:55.229Z,100.00
2023-02-19T00:26:19.972Z,100.00
2023-02-19T00:29:44.686Z,100.00
2023-02-19T00:33:09.393Z,100.00
2023-02-19T00:36:36.286Z,100.00
2023-02-19T00:40:00.450Z,100.00
2023-02-19T00:43:24.405Z,100.00
2023-02-19T00:46:49.139Z,100.00
2023-02-19T00:50:13.131Z,100.00
2023-02-19T00:53:39.831Z,100.00
2023-02-19T00:57:03.714Z,100.00
2023-02-19T01:00:27.619Z,100.00
2023-02-19T01:03:52.082Z,100.00
2023-02-19T01:07:16.104Z,100.00
2023-02-19T01:10:41.636Z,100.00
2023-02-19T01:14:05.695Z,100.00
2023-02-19T01:17:29.753Z,100.00
2023-02-19T01:20:53.860Z,100.00
2023-02-19T01:24:17.815Z,100.00
2023-02-19T01:27:41.742Z,100.00
2023-02-19T01:31:13.506Z,100.00
2023-02-19T01:34:37.630Z,100.00
2023-02-19T01:38:01.591Z,100.00
2023-02-19T01:41:26.805Z,100.00
2023-02-19T01:45:12.236Z,100.00
2023-02-19T01:48:40.517Z,100.00
2023-02-19T01:52:16.886Z,100.00
2023-02-19T01:55:41.774Z,100.00
2023-02-19T01:59:07.777Z,100.00
2023-02-19T02:02:31.901Z,100.00
2023-02-19T02:06:24.238Z,100.00
2023-02-19T02:10:06.198Z,100.00
2023-02-19T02:13:30.878Z,100.00
2023-02-19T02:17:06.868Z,100.00
2023-02-19T02:20:55.379Z,100.00
2023-02-19T02:24:42.698Z,100.00
2023-02-19T02:28:19.383Z,100.00
2023-02-19T02:32:06.239Z,100.00
2023-02-19T02:35:36.316Z,100.00
2023-02-19T02:39:05.298Z,100.00
2023-02-19T02:42:30.679Z,100.00
2023-02-19T02:45:59.045Z,100.00
2023-02-19T02:49:28.514Z,100.00
2023-02-19T02:53:17.663Z,100.00
2023-02-19T02:56:44.041Z,100.00
2023-02-19T03:00:08.684Z,100.00
2023-02-19T03:03:34.902Z,100.00
2023-02-19T03:07:03.244Z,100.00
2023-02-19T03:10:50.426Z,100.00
2023-02-19T03:14:33.119Z,100.00
2023-02-19T03:18:20.103Z,100.00
2023-02-19T03:21:46.776Z,100.00
2023-02-19T03:25:43.053Z,100.00
2023-02-19T03:29:24.425Z,100.00
2023-02-19T03:33:01.482Z,100.00
2023-02-19T03:36:31.624Z,100.00
2023-02-19T03:39:56.582Z,100.00
2023-02-19T03:43:25.197Z,100.00
2023-02-19T03:47:03.754Z,100.00
2023-02-19T03:50:37.714Z,100.00
2023-02-19T03:54:33.576Z,100.00
2023-02-19T03:58:15.298Z,100.00
2023-02-19T04:01:46.405Z,100.00
2023-02-19T04:05:25.976Z,100.00
2023-02-19T04:08:55.302Z,100.00
2023-02-19T04:12:23.756Z,100.00
2023-02-19T04:15:49.718Z,100.00
2023-02-19T04:19:15.254Z,100.00
2023-02-19T04:22:40.250Z,100.00
2023-02-19T04:26:06.792Z,100.00
2023-02-19T04:29:30.699Z,100.00
2023-02-19T04:32:54.555Z,100.00
2023-02-19T04:36:18.637Z,100.00
2023-02-19T04:39:42.585Z,100.00
2023-02-19T04:43:06.606Z,100.00
2023-02-19T04:46:30.696Z,100.00
2023-02-19T04:49:54.653Z,100.00
2023-02-19T04:53:18.480Z,100.00
2023-02-19T04:56:42.376Z,100.00
2023-02-19T05:00:06.783Z,100.00
2023-02-19T05:03:30.956Z,100.00
2023-02-19T05:06:54.831Z,100.00
2023-02-19T05:10:18.776Z,100.00
2023-02-19T05:13:42.780Z,100.00
2023-02-19T05:17:07.594Z,100.00
2023-02-19T05:20:31.515Z,100.00
2023-02-19T05:23:55.310Z,100.00
2023-02-19T05:27:19.233Z,100.00
2023-02-19T05:30:43.078Z,100.00
2023-02-19T05:34:06.956Z,100.00
2023-02-19T05:37:30.839Z,100.00
2023-02-19T05:40:54.855Z,100.00
2023-02-19T05:44:18.872Z,100.00
2023-02-19T05:47:42.780Z,100.00
2023-02-19T05:51:09.568Z,100.00
2023-02-19T05:54:33.864Z,100.00
2023-02-19T05:57:58.212Z,100.00
2023-02-19T06:01:25.043Z,100.00
2023-02-19T06:04:49.079Z,100.00
2023-02-19T06:08:19.568Z,100.00
2023-02-19T06:11:43.661Z,100.00
2023-02-19T06:15:08.388Z,100.00
2023-02-19T06:18:32.277Z,100.00
2023-02-19T06:21:56.229Z,100.00
2023-02-19T06:25:21.042Z,100.00
2023-02-19T06:28:45.880Z,100.00
2023-02-19T06:32:10.210Z,100.00
2023-02-19T06:35:35.233Z,100.00
2023-02-19T06:39:02.317Z,100.00
2023-02-19T06:42:26.293Z,100.00
2023-02-19T06:45:50.238Z,100.00
2023-02-19T06:49:16.171Z,100.00
2023-02-19T06:52:40.108Z,100.00
2023-02-19T06:56:07.526Z,100.00
2023-02-19T06:59:31.398Z,100.00
2023-02-19T07:02:56.737Z,100.00
2023-02-19T07:06:22.510Z,100.00
2023-02-19T07:09:46.392Z,100.00
2023-02-19T07:13:10.318Z,100.00
2023-02-19T07:16:35.212Z,100.00
2023-02-19T07:19:59.150Z,100.00
2023-02-19T07:23:23.007Z,100.00
2023-02-19T07:26:46.797Z,100.00
2023-02-19T07:30:11.669Z,100.00
2023-02-19T07:33:35.664Z,100.00
2023-02-19T07:36:59.538Z,100.00
2023-02-19T07:40:23.486Z,100.00
2023-02-19T07:43:47.493Z,100.00
2023-02-19T07:47:11.406Z,100.00
2023-02-19T07:50:35.345Z,100.00
2023-02-19T07:53:59.466Z,100.00
2023-02-19T07:57:23.428Z,100.00
2023-02-19T08:00:47.327Z,100.00
2023-02-19T08:04:13.244Z,100.00
2023-02-19T08:07:38.104Z,100.00
2023-02-19T08:11:24.613Z,100.00
2023-02-19T08:14:48.478Z,100.00
2023-02-19T08:18:14.149Z,100.00
2023-02-19T08:21:38.292Z,100.00
2023-02-19T08:25:02.194Z,100.00
2023-02-19T08:28:26.269Z,100.00
2023-02-19T08:31:51.230Z,100.00
2023-02-19T08:35:15.111Z,100.00
2023-02-19T08:38:39.235Z,100.00
2023-02-19T08:42:03.129Z,100.00
2023-02-19T08:45:27.046Z,100.00
2023-02-19T08:48:51.246Z,100.00
2023-02-19T08:52:15.177Z,100.00
2023-02-19T08:55:39.973Z,100.00
2023-02-19T08:59:03.946Z,100.00
2023-02-19T09:02:28.046Z,100.00
2023-02-19T09:05:51.998Z,100.00
2023-02-19T09:09:15.910Z,100.00
2023-02-19T09:12:40.721Z,100.00
2023-02-19T09:16:06.193Z,100.00
2023-02-19T09:19:30.832Z,100.00
2023-02-19T09:22:59.336Z,100.00
2023-02-19T09:26:25.017Z,100.00
2023-02-19T09:29:48.916Z,100.00
2023-02-19T09:33:12.899Z,100.00
2023-02-19T09:36:36.845Z,100.00
2023-02-19T09:40:00.692Z,100.00
2023-02-19T09:43:28.998Z,100.00
2023-02-19T09:46:55.068Z,100.00
2023-02-19T09:50:23.531Z,100.00
2023-02-19T09:53:51.947Z,100.00
2023-02-19T09:57:19.333Z,100.00
2023-02-19T10:00:43.967Z,100.00
2023-02-19T10:04:07.822Z,100.00
2023-02-19T10:07:40.477Z,100.00
2023-02-19T10:11:06.327Z,100.00
2023-02-19T10:14:45.944Z,100.00
2023-02-19T10:18:11.243Z,100.00
2023-02-19T10:21:35.382Z,100.00
2023-02-19T10:25:00.089Z,100.00
2023-02-19T10:28:29.150Z,100.00
2023-02-19T10:32:19.069Z,100.00
2023-02-19T10:35:57.887Z,100.00
2023-02-19T10:39:24.604Z,100.00
2023-02-19T10:42:55.150Z,100.00
2023-02-19T10:46:25.418Z,100.00
2023-02-19T10:49:52.280Z,100.00
2023-02-19T10:53:24.373Z,100.00
2023-02-19T10:56:48.619Z,100.00
2023-02-19T11:00:27.509Z,100.00
2023-02-19T11:04:15.225Z,100.00
2023-02-19T11:07:45.408Z,100.00
2023-02-19T11:11:09.631Z,100.00
2023-02-19T11:14:35.693Z,100.00
2023-02-19T11:18:20.461Z,100.00
2023-02-19T11:21:44.347Z,100.00
2023-02-19T11:25:11.102Z,100.00
2023-02-19T11:28:41.286Z,100.00
2023-02-19T11:32:26.767Z,100.00
2023-02-19T11:35:54.987Z,100.00
2023-02-19T11:39:18.829Z,100.00
2023-02-19T11:42:57.910Z,100.00
2023-02-19T11:46:59.684Z,100.00
2023-02-19T11:50:30.618Z,100.00
2023-02-19T11:54:33.441Z,100.00
2023-02-19T11:58:34.337Z,100.00
2023-02-19T12:02:18.370Z,100.00
2023-02-19T12:05:50.681Z,100.00
2023-02-19T12:09:33.492Z,100.00
2023-02-19T12:13:24.546Z,100.00
2023-02-19T12:16:52.591Z,100.00
2023-02-19T12:20:22.989Z,99.93
2023-02-19T12:24:14.986Z,98.22
2023-02-19T12:28:20.006Z,98.86
2023-02-19T12:32:06.462Z,97.45
2023-02-19T12:35:52.255Z,96.89
2023-02-19T12:39:40.600Z,93.75
2023-02-19T12:43:23.597Z,93.57
2023-02-19T12:46:56.230Z,91.81
2023-02-19T12:50:26.498Z,90.23
2023-02-19T12:54:16.147Z,86.21
2023-02-19T12:57:40.976Z,86.34
2023-02-19T13:01:08.369Z,85.94
2023-02-19T13:04:52.143Z,84.82
2023-02-19T13:08:48.791Z,84.09
2023-02-19T13:12:38.138Z,84.25
2023-02-19T13:16:09.923Z,83.55
2023-02-19T13:19:34.660Z,82.70
2023-02-19T13:23:22.340Z,81.25
2023-02-19T13:27:04.546Z,81.24
2023-02-19T13:30:39.867Z,79.67
2023-02-19T13:34:22.088Z,79.96
2023-02-19T13:37:46.364Z,80.01
2023-02-19T13:41:29.200Z,79.63
2023-02-19T13:44:57.998Z,80.09
2023-02-19T13:48:25.668Z,79.37
2023-02-19T13:51:52.893Z,80.54
2023-02-19T13:55:46.880Z,81.53
2023-02-19T13:59:37.952Z,82.45
2023-02-19T14:03:28.793Z,83.51
2023-02-19T14:07:04.879Z,85.46
2023-02-19T14:10:47.520Z,86.11
2023-02-19T14:14:36.436Z,84.50
2023-02-19T14:18:00.438Z,82.82
2023-02-19T14:21:39.041Z,82.36
2023-02-19T14:25:09.566Z,81.75
2023-02-19T14:28:38.376Z,81.63
2023-02-19T14:32:06.600Z,81.45
2023-02-19T14:35:41.749Z,81.58
2023-02-19T14:39:22.997Z,82.24
2023-02-19T14:42:47.395Z,81.98
2023-02-19T14:46:24.581Z,82.81
2023-02-19T14:49:51.030Z,83.69
2023-02-19T14:53:18.311Z,84.10
2023-02-19T14:56:48.076Z,85.09
2023-02-19T15:00:29.417Z,85.80
2023-02-19T15:03:57.803Z,86.19
2023-02-19T15:07:31.517Z,87.15
2023-02-19T15:10:56.018Z,88.11
2023-02-19T15:14:24.461Z,88.91
2023-02-19T15:17:48.479Z,89.62
2023-02-19T15:21:22.864Z,90.64
2023-02-19T15:24:48.871Z,91.28
2023-02-19T15:28:28.715Z,91.65
2023-02-19T15:32:00.573Z,92.21
2023-02-19T15:35:26.445Z,92.52
2023-02-19T15:38:55.725Z,92.57
2023-02-19T15:42:30.839Z,93.31
2023-02-19T15:46:10.805Z,93.98
2023-02-19T15:49:50.536Z,94.53
2023-02-19T15:53:26.598Z,94.47
2023-02-19T15:56:52.841Z,95.16
2023-02-19T16:00:23.349Z,95.80
2023-02-19T16:03:48.395Z,95.75
2023-02-19T16:07:32.028Z,95.18
2023-02-19T16:10:57.961Z,95.31
2023-02-19T16:14:29.352Z,95.63
2023-02-19T16:17:54.430Z,95.16
2023-02-19T16:21:23.260Z,95.28
2023-02-19T16:24:50.075Z,95.93
2023-02-19T16:28:27.420Z,96.32
2023-02-19T16:31:54.353Z,96.99
2023-02-19T16:35:40.371Z,97.74
2023-02-19T16:39:07.329Z,98.35
2023-02-19T16:42:31.705Z,99.07
2023-02-19T16:45:55.879Z,99.86
2023-02-19T16:49:22.226Z,100.00
2023-02-19T16:52:58.145Z,100.00
2023-02-19T16:56:25.423Z,100.00
2023-02-19T16:59:49.298Z,100.00
2023-02-19T17:03:20.679Z,100.00
2023-02-19T17:06:45.689Z,100.00
2023-02-19T17:10:14.220Z,100.00
2023-02-19T17:13:39.537Z,100.00
2023-02-19T17:17:03.477Z,100.00
2023-02-19T17:20:32.682Z,100.00
2023-02-19T17:23:57.603Z,100.00
2023-02-19T17:27:21.624Z,100.00
2023-02-19T17:30:45.594Z,100.00
2023-02-19T17:34:09.474Z,100.00
2023-02-19T17:37:33.444Z,100.00
2023-02-19T17:40:57.992Z,100.00
2023-02-19T17:44:22.030Z,100.00
2023-02-19T17:47:48.891Z,100.00
2023-02-19T17:51:13.157Z,100.00
2023-02-19T17:54:37.247Z,100.00
2023-02-19T17:58:01.881Z,100.00
2023-02-19T18:01:26.274Z,100.00
2023-02-19T18:04:50.282Z,100.00
2023-02-19T18:08:14.712Z,100.00
2023-02-19T18:11:38.950Z,100.00
2023-02-19T18:15:03.389Z,100.00
2023-02-19T18:18:31.225Z,100.00
2023-02-19T18:21:55.161Z,100.00
2023-02-19T18:25:22.958Z,100.00
2023-02-19T18:28:49.214Z,100.00
2023-02-19T18:32:15.585Z,100.00
2023-02-19T18:35:39.374Z,100.00
2023-02-19T18:39:03.274Z,100.00
2023-02-19T18:42:28.434Z,100.00
2023-02-19T18:45:54.762Z,100.00
2023-02-19T18:49:19.185Z,100.00
2023-02-19T18:52:43.500Z,100.00
2023-02-19T18:56:09.232Z,100.00
2023-02-19T18:59:33.554Z,100.00
2023-02-19T19:03:01.051Z,100.00
2023-02-19T19:06:27.644Z,100.00
2023-02-19T19:09:51.691Z,100.00
2023-02-19T19:13:15.824Z,100.00
2023-02-19T19:16:39.744Z,100.00
2023-02-19T19:20:04.503Z,100.00
2023-02-19T19:23:28.573Z,100.00
2023-02-19T19:26:53.481Z,100.00
2023-02-19T19:30:18.180Z,100.00
2023-02-19T19:33:43.609Z,100.00
2023-02-19T19:37:10.597Z,100.00
2023-02-19T19:40:34.684Z,100.00
2023-02-19T19:43:58.764Z,100.00
2023-02-19T19:47:22.753Z,100.00
2023-02-19T19:50:49.056Z,100.00
2023-02-19T19:54:13.470Z,100.00
2023-02-19T19:57:40.629Z,100.00
2023-02-19T20:01:06.115Z,100.00
2023-02-19T20:04:30.521Z,100.00
2023-02-19T20:07:55.849Z,100.00
2023-02-19T20:11:19.708Z,100.00
2023-02-19T20:14:47.755Z,100.00
2023-02-19T20:18:11.658Z,100.00
2023-02-19T20:21:38.029Z,100.00
2023-02-19T20:25:02.266Z,100.00
2023-02-19T20:28:26.256Z,100.00
2023-02-19T20:31:51.668Z,100.00
2023-02-19T20:35:16.933Z,100.00
2023-02-19T20:38:43.452Z,100.00
2023-02-19T20:42:08.320Z,100.00
2023-02-19T20:45:33.904Z,100.00
2023-02-19T20:48:58.442Z,100.00
2023-02-19T20:52:24.823Z,100.00
2023-02-19T20:55:48.828Z,100.00
2023-02-19T20:59:13.878Z,100.00
2023-02-19T21:02:38.969Z,100.00
2023-02-19T21:06:03.279Z,100.00
2023-02-19T21:09:27.180Z,100.00
2023-02-19T21:13:13.553Z,100.00
2023-02-19T21:17:11.578Z,100.00
2023-02-19T21:21:09.552Z,100.00
2023-02-19T21:25:07.523Z,100.00
2023-02-19T21:29:06.458Z,100.00
2023-02-19T21:33:04.535Z,100.00
2023-02-19T21:37:02.450Z,100.00
2023-02-19T21:41:01.527Z,100.00
2023-02-19T21:44:59.471Z,100.00
2023-02-19T21:48:57.671Z,100.00
2023-02-19T21:52:55.531Z,100.00
2023-02-19T21:56:53.474Z,100.00
2023-02-19T22:00:51.468Z,100.00
2023-02-19T22:04:49.465Z,100.00
2023-02-19T22:08:47.545Z,100.00
2023-02-19T22:12:45.394Z,100.00
2023-02-19T22:16:43.555Z,100.00
2023-02-19T22:20:44.457Z,100.00
2023-02-19T22:24:42.467Z,100.00
2023-02-19T22:28:40.513Z,100.00
2023-02-19T22:32:38.440Z,100.00
2023-02-19T22:36:38.419Z,100.00
2023-02-19T22:40:36.392Z,100.00
2023-02-19T22:44:34.375Z,100.00
2023-02-19T22:48:32.456Z,100.00
2023-02-19T22:52:30.387Z,100.00
2023-02-19T22:56:30.375Z,100.00
2023-02-19T23:00:34.326Z,100.00
2023-02-19T23:04:32.442Z,100.00
2023-02-19T23:08:30.348Z,100.00
2023-02-19T23:12:28.326Z,100.00
2023-02-19T23:16:26.359Z,100.00
2023-02-19T23:20:24.299Z,100.00
2023-02-19T23:24:22.489Z,100.00
2023-02-19T23:28:20.288Z,100.00
2023-02-19T23:32:18.323Z,100.00
2023-02-19T23:36:16.283Z,100.00
2023-02-19T23:40:14.279Z,100.00
2023-02-19T23:44:12.359Z,100.00
2023-02-19T23:48:10.325Z,100.00
2023-02-19T23:52:08.244Z,100.00
2023-02-19T23:56:06.231Z,100.00
